Time,TemperatureF,DewpointF,PressureIn,WindDirection,WindDirectionDegrees,WindSpeedMPH,WindSpeedGustMPH,Humidity,HourlyPrecipIn,Conditions,Clouds,dailyrainin,SoftwareType,DateUTC
2013-02-01 00:02:00,42.8,39.5,30.18,NNW,338,0.0,0.0,88,0.00,,---,0.00,VWS V14.01,2013-02-01 08:02:00,
2013-02-01 00:07:00,42.4,39.7,30.18,NNW,338,0.0,0.0,90,0.00,,---,0.00,VWS V14.01,2013-02-01 08:07:00,
2013-02-01 00:12:00,42.4,39.7,30.18,NNW,338,0.0,0.0,90,0.00,,---,0.00,VWS V14.01,2013-02-01 08:12:00,
2013-02-01 00:17:00,42.4,39.7,30.18,NNW,338,0.0,0.0,90,0.00,,---,0.00,VWS V14.01,2013-02-01 08:17:00,
2013-02-01 00:22:00,42.3,39.8,30.18,NNW,338,0.0,0.0,91,0.00,,---,0.00,VWS V14.01,2013-02-01 08:22:00,
2013-02-01 00:27:00,42.1,39.9,30.18,NNW,338,0.0,0.0,92,0.00,,---,0.00,VWS V14.01,2013-02-01 08:27:00,
2013-02-01 00:32:00,41.9,39.5,30.18,NNW,338,0.0,0.0,91,0.00,,---,0.00,VWS V14.01,2013-02-01 08:32:00,
2013-02-01 00:37:00,41.7,39.6,30.18,NNW,338,0.0,0.0,92,0.00,,---,0.00,VWS V14.01,2013-02-01 08:37:00,
2013-02-01 00:42:00,41.5,39.4,30.18,NNW,338,0.0,0.0,92,0.00,,---,0.00,VWS V14.01,2013-02-01 08:42:00,
2013-02-01 00:47:00,41.5,39.4,30.18,NNW,338,0.0,0.0,92,0.00,,---,0.00,VWS V14.01,2013-02-01 08:47:00,
2013-02-01 00:52:00,41.2,38.8,30.18,NNW,338,0.0,0.0,91,0.00,,---,0.00,VWS V14.01,2013-02-01 08:52:00,
2013-02-01 00:57:00,41.0,38.9,30.18,NNW,338,0.0,0.0,92,0.00,,---,0.00,VWS V14.01,2013-02-01 08:57:00,
2013-02-01 01:02:00,41.2,39.0,30.18,NNW,338,0.0,0.0,92,0.00,,---,0.00,VWS V14.01,2013-02-01 09:02:00,
2013-02-01 01:07:00,41.0,38.9,30.18,NNW,338,0.0,0.0,92,0.00,,---,0.00,VWS V14.01,2013-02-01 09:07:00,
2013-02-01 01:12:00,40.6,38.5,30.18,NNW,338,0.0,0.0,92,0.00,,---,0.00,VWS V14.01,2013-02-01 09:12:00,
2013-02-01 01:17:00,40.3,38.4,30.18,NNW,338,0.0,0.0,93,0.00,,---,0.00,VWS V14.01,2013-02-01 09:17:00,
2013-02-01 01:22:00,39.9,38.1,30.18,NNW,338,0.0,0.0,93,0.00,,---,0.00,VWS V14.01,2013-02-01 09:22:00,
2013-02-01 01:27:00,39.9,38.1,30.21,NNW,338,0.0,0.0,93,0.00,,---,0.00,VWS V14.01,2013-02-01 09:27:00,
2013-02-01 01:32:00,39.9,38.3,30.21,NNW,338,0.0,0.0,94,0.00,,---,0.00,VWS V14.01,2013-02-01 09:32:00,
2013-02-01 01:37:00,40.1,38.5,30.21,NNW,338,0.0,0.0,94,0.00,,---,0.00,VWS V14.01,2013-02-01 09:37:00,
2013-02-01 01:42:00,39.7,38.2,30.18,NNW,338,0.0,0.0,94,0.00,,---,0.00,VWS V14.01,2013-02-01 09:42:00,
2013-02-01 01:47:00,39.7,38.2,30.18,NNW,338,0.0,0.0,94,0.00,,---,0.00,VWS V14.01,2013-02-01 09:47:00,
2013-02-01 01:52:00,39.7,38.2,30.18,NNW,338,0.0,0.0,94,0.00,,---,0.00,VWS V14.01,2013-02-01 09:52:00,
2013-02-01 01:57:00,39.9,38.3,30.21,NNW,338,0.0,0.0,94,0.00,,---,0.00,VWS V14.01,2013-02-01 09:57:00,
2013-02-01 02:02:00,39.7,38.2,30.21,NNW,338,0.0,0.0,94,0.00,,---,0.00,VWS V14.01,2013-02-01 10:02:00,
2013-02-01 02:08:00,39.7,37.9,30.21,NNW,338,0.0,0.0,93,0.00,,---,0.00,VWS V14.01,2013-02-01 10:08:00,
2013-02-01 02:13:00,39.7,38.2,30.21,NNW,338,0.0,0.0,94,0.00,,---,0.00,VWS V14.01,2013-02-01 10:13:00,
2013-02-01 02:18:00,39.7,38.2,30.21,NNW,338,0.0,0.0,94,0.00,,---,0.00,VWS V14.01,2013-02-01 10:18:00,
2013-02-01 02:23:00,39.6,38.0,30.21,NNW,338,0.0,0.0,94,0.00,,---,0.00,VWS V14.01,2013-02-01 10:23:00,
2013-02-01 02:28:00,39.2,37.9,30.21,NNW,338,0.0,0.0,95,0.00,,---,0.00,VWS V14.01,2013-02-01 10:28:00,
2013-02-01 02:33:00,39.2,37.9,30.21,NNW,338,0.0,0.0,95,0.00,,---,0.00,VWS V14.01,2013-02-01 10:33:00,
2013-02-01 02:38:00,39.4,38.1,30.21,NNW,338,0.0,0.0,95,0.00,,---,0.00,VWS V14.01,2013-02-01 10:38:00,
2013-02-01 02:43:00,39.2,37.9,30.21,NNW,338,0.0,0.0,95,0.00,,---,0.00,VWS V14.01,2013-02-01 10:43:00,
2013-02-01 02:48:00,39.4,38.1,30.21,NNW,338,0.0,0.0,95,0.00,,---,0.00,VWS V14.01,2013-02-01 10:48:00,
2013-02-01 02:53:00,39.2,37.9,30.21,NNW,338,0.0,0.0,95,0.00,,---,0.00,VWS V14.01,2013-02-01 10:53:00,
2013-02-01 02:58:00,39.0,38.0,30.21,NNW,338,0.0,0.0,96,0.00,,---,0.00,VWS V14.01,2013-02-01 10:58:00,
2013-02-01 03:03:00,38.8,37.8,30.21,NNW,338,0.0,0.0,96,0.00,,---,0.00,VWS V14.01,2013-02-01 11:03:00,
2013-02-01 03:08:00,38.5,37.4,30.21,NNW,338,0.0,0.0,96,0.00,,---,0.00,VWS V14.01,2013-02-01 11:08:00,
2013-02-01 03:13:00,38.7,37.6,30.21,NNW,338,0.0,0.0,96,0.00,,---,0.00,VWS V14.01,2013-02-01 11:13:00,
2013-02-01 03:18:00,38.3,37.3,30.21,NNW,338,0.0,0.0,96,0.00,,---,0.00,VWS V14.01,2013-02-01 11:18:00,
2013-02-01 03:23:00,38.1,37.1,30.21,NNW,338,0.0,0.0,96,0.00,,---,0.00,VWS V14.01,2013-02-01 11:23:00,
2013-02-01 03:28:00,37.9,36.9,30.18,NNW,338,0.0,0.0,96,0.00,,---,0.00,VWS V14.01,2013-02-01 11:28:00,
2013-02-01 03:33:00,38.1,37.1,30.18,NNW,338,0.0,0.0,96,0.00,,---,0.00,VWS V14.01,2013-02-01 11:33:00,
2013-02-01 03:38:00,37.9,36.9,30.18,NNW,338,0.0,0.0,96,0.00,,---,0.00,VWS V14.01,2013-02-01 11:38:00,
2013-02-01 03:43:00,37.9,37.2,30.21,NNW,338,0.0,0.0,97,0.00,,---,0.00,VWS V14.01,2013-02-01 11:43:00,
2013-02-01 03:49:00,37.6,36.8,30.21,NNW,338,0.0,0.0,97,0.00,,---,0.00,VWS V14.01,2013-02-01 11:49:00,
2013-02-01 03:54:00,37.6,36.8,30.21,NNW,338,0.0,0.0,97,0.00,,---,0.00,VWS V14.01,2013-02-01 11:54:00,
2013-02-01 03:59:00,37.6,36.8,30.18,NNW,338,0.0,0.0,97,0.00,,---,0.00,VWS V14.01,2013-02-01 11:59:00,
2013-02-01 04:04:00,37.6,36.8,30.18,NNW,338,0.0,0.0,97,0.00,,---,0.00,VWS V14.01,2013-02-01 12:04:00,
2013-02-01 04:09:00,37.4,36.6,30.18,NNW,338,0.0,0.0,97,0.00,,---,0.00,VWS V14.01,2013-02-01 12:09:00,
2013-02-01 04:14:00,37.6,36.8,30.21,NNW,338,0.0,0.0,97,0.00,,---,0.00,VWS V14.01,2013-02-01 12:14:00,
2013-02-01 04:19:00,38.1,37.6,30.21,NNW,338,0.0,0.0,98,0.00,,---,0.00,VWS V14.01,2013-02-01 12:19:00,
2013-02-01 04:24:00,37.9,37.4,30.21,NNW,338,0.0,0.0,98,0.00,,---,0.00,VWS V14.01,2013-02-01 12:24:00,
2013-02-01 04:29:00,37.6,37.1,30.21,ENE,68,0.0,0.0,98,0.00,,---,0.00,VWS V14.01,2013-02-01 12:29:00,
2013-02-01 04:34:00,37.2,36.7,30.21,ENE,68,0.0,0.0,98,0.00,,---,0.00,VWS V14.01,2013-02-01 12:34:00,
2013-02-01 04:39:00,36.9,36.1,30.21,ENE,68,0.0,0.0,97,0.00,,---,0.00,VWS V14.01,2013-02-01 12:39:00,
2013-02-01 04:44:00,36.7,35.9,30.21,ENE,68,0.0,0.0,97,0.00,,---,0.00,VWS V14.01,2013-02-01 12:44:00,
2013-02-01 04:49:00,36.5,36.0,30.21,ENE,68,0.0,0.0,98,0.00,,---,0.00,VWS V14.01,2013-02-01 12:49:00,
2013-02-01 04:54:00,36.3,35.8,30.21,ENE,68,0.0,0.0,98,0.00,,---,0.00,VWS V14.01,2013-02-01 12:54:00,
2013-02-01 04:59:00,36.3,35.8,30.21,ENE,68,0.0,0.0,98,0.00,,---,0.00,VWS V14.01,2013-02-01 12:59:00,
2013-02-01 05:04:00,36.1,35.6,30.21,ENE,68,0.0,0.0,98,0.00,,---,0.00,VWS V14.01,2013-02-01 13:04:00,
2013-02-01 05:09:00,35.8,35.3,30.21,ENE,68,0.0,0.0,98,0.00,,---,0.00,VWS V14.01,2013-02-01 13:09:00,
2013-02-01 05:14:00,35.8,35.3,30.21,ENE,68,0.0,0.0,98,0.00,,---,0.00,VWS V14.01,2013-02-01 13:14:00,
2013-02-01 05:19:00,35.8,35.3,30.21,ENE,68,0.0,0.0,98,0.00,,---,0.00,VWS V14.01,2013-02-01 13:19:00,
2013-02-01 05:24:00,35.8,35.3,30.21,ENE,68,0.0,0.0,98,0.00,,---,0.00,VWS V14.01,2013-02-01 13:24:00,
2013-02-01 05:29:00,35.8,35.3,30.21,ENE,68,0.0,0.0,98,0.00,,---,0.00,VWS V14.01,2013-02-01 13:29:00,
2013-02-01 05:34:00,35.8,35.3,30.21,ENE,68,0.0,0.0,98,0.00,,---,0.00,VWS V14.01,2013-02-01 13:34:00,
2013-02-01 05:39:00,35.8,35.3,30.21,ENE,68,0.0,0.0,98,0.00,,---,0.00,VWS V14.01,2013-02-01 13:39:00,
2013-02-01 05:44:00,35.6,35.1,30.21,ENE,68,0.0,0.0,98,0.00,,---,0.00,VWS V14.01,2013-02-01 13:44:00,
2013-02-01 05:49:00,35.4,34.9,30.21,ENE,68,0.0,0.0,98,0.00,,---,0.00,VWS V14.01,2013-02-01 13:49:00,
2013-02-01 05:54:00,35.4,34.9,30.21,ENE,68,0.0,0.0,98,0.00,,---,0.00,VWS V14.01,2013-02-01 13:54:00,
2013-02-01 05:59:00,35.4,34.9,30.21,ENE,68,0.0,0.0,98,0.00,,---,0.00,VWS V14.01,2013-02-01 13:59:00,
2013-02-01 06:05:00,35.4,34.9,30.21,ENE,68,0.0,0.0,98,0.00,,---,0.00,VWS V14.01,2013-02-01 14:05:00,
2013-02-01 06:10:00,35.6,35.1,30.21,ENE,68,0.0,0.0,98,0.00,,---,0.00,VWS V14.01,2013-02-01 14:10:00,
2013-02-01 06:15:00,35.6,35.1,30.21,ENE,68,0.0,0.0,98,0.00,,---,0.00,VWS V14.01,2013-02-01 14:15:00,
2013-02-01 06:20:00,35.6,35.1,30.21,ENE,68,0.0,0.0,98,0.00,,---,0.00,VWS V14.01,2013-02-01 14:20:00,
2013-02-01 06:25:00,35.4,34.9,30.21,ENE,68,0.0,0.0,98,0.00,,---,0.00,VWS V14.01,2013-02-01 14:25:00,
2013-02-01 06:30:00,35.2,34.7,30.21,ENE,68,0.0,0.0,98,0.00,,---,0.00,VWS V14.01,2013-02-01 14:30:00,
2013-02-01 06:35:00,35.2,34.7,30.21,ENE,68,0.0,0.0,98,0.00,,---,0.00,VWS V14.01,2013-02-01 14:35:00,
2013-02-01 06:40:00,35.1,34.5,30.21,ENE,68,0.0,0.0,98,0.00,,---,0.00,VWS V14.01,2013-02-01 14:40:00,
2013-02-01 06:45:00,35.1,34.5,30.21,ENE,68,0.0,0.0,98,0.00,,---,0.00,VWS V14.01,2013-02-01 14:45:00,
2013-02-01 06:50:00,35.1,34.5,30.21,ENE,68,0.0,0.0,98,0.00,,---,0.00,VWS V14.01,2013-02-01 14:50:00,
2013-02-01 06:55:00,35.1,34.5,30.21,ENE,68,0.0,0.0,98,0.00,,---,0.00,VWS V14.01,2013-02-01 14:55:00,
2013-02-01 07:00:00,35.1,34.5,30.21,ENE,68,0.0,0.0,98,0.00,,---,0.00,VWS V14.01,2013-02-01 15:00:00,
2013-02-01 07:05:00,34.9,34.4,30.21,ENE,68,0.0,0.0,98,0.00,,---,0.00,VWS V14.01,2013-02-01 15:05:00,
2013-02-01 07:10:00,34.9,34.4,30.21,ENE,68,0.0,0.0,98,0.00,,---,0.00,VWS V14.01,2013-02-01 15:10:00,
2013-02-01 07:15:00,34.9,34.4,30.21,ENE,68,0.0,0.0,98,0.00,,---,0.00,VWS V14.01,2013-02-01 15:15:00,
2013-02-01 07:20:00,35.1,34.5,30.21,ENE,68,0.0,0.0,98,0.00,,---,0.00,VWS V14.01,2013-02-01 15:20:00,
2013-02-01 07:26:00,35.1,34.5,30.21,ENE,68,0.0,0.0,98,0.00,,---,0.00,VWS V14.01,2013-02-01 15:26:00,
2013-02-01 07:31:00,35.1,34.5,30.21,ENE,68,0.0,0.0,98,0.00,,---,0.00,VWS V14.01,2013-02-01 15:31:00,
2013-02-01 07:36:00,35.2,34.7,30.21,ENE,68,0.0,0.0,98,0.00,,---,0.00,VWS V14.01,2013-02-01 15:36:00,
2013-02-01 07:41:00,35.4,34.9,30.24,ENE,68,0.0,0.0,98,0.00,,---,0.00,VWS V14.01,2013-02-01 15:41:00,
2013-02-01 07:46:00,35.6,35.1,30.24,ENE,68,0.0,0.0,98,0.00,,---,0.00,VWS V14.01,2013-02-01 15:46:00,
2013-02-01 07:51:00,36.0,35.5,30.24,ENE,68,0.0,0.0,98,0.00,,---,0.00,VWS V14.01,2013-02-01 15:51:00,
2013-02-01 07:56:00,36.3,35.8,30.21,ENE,68,0.0,0.0,98,0.00,,---,0.00,VWS V14.01,2013-02-01 15:56:00,
2013-02-01 08:01:00,36.7,36.2,30.21,ENE,68,0.0,0.0,98,0.00,,---,0.00,VWS V14.01,2013-02-01 16:01:00,
2013-02-01 08:06:00,37.4,36.9,30.21,ENE,68,0.0,0.0,98,0.00,,---,0.00,VWS V14.01,2013-02-01 16:06:00,
2013-02-01 08:11:00,37.8,37.2,30.18,ENE,68,1.1,2.0,98,0.00,,---,0.00,VWS V14.01,2013-02-01 16:11:00,
2013-02-01 08:16:00,38.5,38.0,30.18,East,90,0.9,0.9,98,0.00,,---,0.00,VWS V14.01,2013-02-01 16:16:00,
2013-02-01 08:21:00,39.0,38.5,30.18,ESE,112,1.6,2.0,98,0.00,,---,0.00,VWS V14.01,2013-02-01 16:21:00,
2013-02-01 08:26:00,39.6,39.0,30.21,East,90,0.0,0.0,98,0.00,,---,0.00,VWS V14.01,2013-02-01 16:26:00,
2013-02-01 08:31:00,40.3,39.8,30.21,ESE,112,0.0,0.0,98,0.00,,---,0.00,VWS V14.01,2013-02-01 16:31:00,
2013-02-01 08:36:00,41.0,40.5,30.21,East,90,0.0,0.0,98,0.00,,---,0.00,VWS V14.01,2013-02-01 16:36:00,
2013-02-01 08:42:00,41.4,40.8,30.21,East,90,0.0,0.0,98,0.00,,---,0.00,VWS V14.01,2013-02-01 16:42:00,
2013-02-01 08:47:00,41.9,41.4,30.21,East,90,0.0,0.0,98,0.00,,---,0.00,VWS V14.01,2013-02-01 16:47:00,
2013-02-01 08:52:00,42.3,41.7,30.21,ENE,68,0.0,0.0,98,0.00,,---,0.00,VWS V14.01,2013-02-01 16:52:00,
2013-02-01 08:57:00,42.8,42.3,30.21,NE,45,1.6,1.6,98,0.00,,---,0.00,VWS V14.01,2013-02-01 16:57:00,
2013-02-01 09:02:00,43.5,43.0,30.21,ENE,68,0.0,0.0,98,0.00,,---,0.00,VWS V14.01,2013-02-01 17:02:00,
2013-02-01 09:07:00,45.0,44.4,30.21,ESE,112,0.0,0.0,98,0.00,,---,0.00,VWS V14.01,2013-02-01 17:07:00,
2013-02-01 09:12:00,46.4,45.9,30.21,ESE,112,0.0,0.0,98,0.00,,---,0.00,VWS V14.01,2013-02-01 17:12:00,
2013-02-01 09:17:00,47.8,47.3,30.21,East,90,0.0,0.0,98,0.00,,---,0.00,VWS V14.01,2013-02-01 17:17:00,
2013-02-01 09:22:00,49.1,48.6,30.21,SSE,158,1.6,2.5,98,0.00,,---,0.00,VWS V14.01,2013-02-01 17:22:00,
2013-02-01 09:27:00,50.4,49.8,30.21,SE,135,0.9,0.9,98,0.00,,---,0.00,VWS V14.01,2013-02-01 17:27:00,
2013-02-01 09:32:00,51.8,51.3,30.21,ESE,112,2.7,2.7,98,0.00,,---,0.00,VWS V14.01,2013-02-01 17:32:00,
2013-02-01 09:37:00,52.9,51.2,30.21,ESE,112,3.1,3.1,94,0.00,,---,0.00,VWS V14.01,2013-02-01 17:37:00,
2013-02-01 09:42:00,54.3,51.5,30.21,SE,135,0.0,0.0,90,0.00,,---,0.00,VWS V14.01,2013-02-01 17:42:00,
2013-02-01 09:47:00,55.6,52.4,30.21,NNE,22,0.0,0.0,89,0.00,,---,0.00,VWS V14.01,2013-02-01 17:47:00,
2013-02-01 09:52:00,56.3,50.9,30.21,ESE,112,0.0,2.0,82,0.00,,---,0.00,VWS V14.01,2013-02-01 17:52:00,
2013-02-01 09:57:00,57.4,49.5,30.18,East,90,1.1,2.0,75,0.00,,---,0.00,VWS V14.01,2013-02-01 17:57:00,
2013-02-01 10:03:00,58.1,46.8,30.18,SW,225,1.3,1.6,66,0.00,,---,0.00,VWS V14.01,2013-02-01 18:03:00,
2013-02-01 10:08:00,58.8,47.1,30.18,ESE,112,1.3,3.1,65,0.00,,---,0.00,VWS V14.01,2013-02-01 18:08:00,
2013-02-01 10:13:00,59.7,47.5,30.18,South,180,2.7,2.7,64,0.00,,---,0.00,VWS V14.01,2013-02-01 18:13:00,
2013-02-01 10:18:00,60.1,46.6,30.18,East,90,0.0,0.0,61,0.00,,---,0.00,VWS V14.01,2013-02-01 18:18:00,
2013-02-01 10:23:00,61.0,45.2,30.18,South,180,0.0,2.2,56,0.00,,---,0.00,VWS V14.01,2013-02-01 18:23:00,
2013-02-01 10:28:00,61.5,44.7,30.18,ENE,68,0.0,0.0,54,0.00,,---,0.00,VWS V14.01,2013-02-01 18:28:00,
2013-02-01 10:33:00,61.7,43.9,30.18,South,180,0.0,0.9,52,0.00,,---,0.00,VWS V14.01,2013-02-01 18:33:00,
2013-02-01 10:38:00,62.2,42.9,30.18,SE,135,2.7,2.7,49,0.00,,---,0.00,VWS V14.01,2013-02-01 18:38:00,
2013-02-01 10:43:00,62.6,43.2,30.18,SSE,158,1.3,1.6,49,0.00,,---,0.00,VWS V14.01,2013-02-01 18:43:00,
2013-02-01 10:48:00,63.1,43.2,30.18,ESE,112,1.6,2.7,48,0.00,,---,0.00,VWS V14.01,2013-02-01 18:48:00,
2013-02-01 10:53:00,63.7,43.1,30.18,NW,315,1.1,1.1,47,0.00,,---,0.00,VWS V14.01,2013-02-01 18:53:00,
2013-02-01 10:58:00,63.9,42.7,30.18,NNE,22,0.0,1.6,46,0.00,,---,0.00,VWS V14.01,2013-02-01 18:58:00,
2013-02-01 11:03:00,64.2,42.5,30.18,SSW,202,1.3,2.7,45,0.00,,---,0.00,VWS V14.01,2013-02-01 19:03:00,
2013-02-01 11:08:00,64.4,41.4,30.18,SW,225,2.2,2.7,43,0.00,,---,0.00,VWS V14.01,2013-02-01 19:08:00,
2013-02-01 11:14:00,64.6,41.6,30.15,ENE,68,1.1,3.6,43,0.00,,---,0.00,VWS V14.01,2013-02-01 19:14:00,
2013-02-01 11:19:00,66.0,42.9,30.15,ESE,112,0.9,2.7,43,0.00,,---,0.00,VWS V14.01,2013-02-01 19:19:00,
2013-02-01 11:24:00,66.9,43.7,30.15,South,180,1.1,2.0,43,0.00,,---,0.00,VWS V14.01,2013-02-01 19:24:00,
2013-02-01 11:29:00,67.1,42.0,30.15,SE,135,2.0,3.1,40,0.00,,---,0.00,VWS V14.01,2013-02-01 19:29:00,
2013-02-01 11:34:00,66.7,40.3,30.15,NNW,338,0.0,2.0,38,0.00,,---,0.00,VWS V14.01,2013-02-01 19:34:00,
2013-02-01 11:39:00,67.8,42.6,30.15,SW,225,2.0,3.1,40,0.00,,---,0.00,VWS V14.01,2013-02-01 19:39:00,
2013-02-01 11:44:00,67.6,43.1,30.12,ENE,68,2.0,2.0,41,0.00,,---,0.00,VWS V14.01,2013-02-01 19:44:00,
2013-02-01 11:49:00,67.8,42.6,30.12,SW,225,0.0,1.6,40,0.00,,---,0.00,VWS V14.01,2013-02-01 19:49:00,
2013-02-01 11:54:00,68.5,43.9,30.12,NNE,22,1.1,1.1,41,0.00,,---,0.00,VWS V14.01,2013-02-01 19:54:00,
2013-02-01 11:59:00,69.3,41.9,30.12,SW,225,2.9,4.0,37,0.00,,---,0.00,VWS V14.01,2013-02-01 19:59:00,
2013-02-01 12:04:00,68.5,40.5,30.12,West,270,1.3,3.6,36,0.00,,---,0.00,VWS V14.01,2013-02-01 20:04:00,
2013-02-01 12:09:00,68.7,40.7,30.12,SSW,202,1.3,2.5,36,0.00,,---,0.00,VWS V14.01,2013-02-01 20:09:00,
2013-02-01 12:14:00,69.3,41.9,30.15,South,180,2.5,3.6,37,0.00,,---,0.00,VWS V14.01,2013-02-01 20:14:00,
2013-02-01 12:19:00,69.4,42.8,30.15,SE,135,2.0,3.8,38,0.00,,---,0.00,VWS V14.01,2013-02-01 20:19:00,
2013-02-01 12:24:00,69.1,41.0,30.15,WSW,248,2.2,2.5,36,0.00,,---,0.00,VWS V14.01,2013-02-01 20:24:00,
2013-02-01 12:29:00,70.2,42.0,30.15,SSW,202,2.7,2.7,36,0.00,,---,0.00,VWS V14.01,2013-02-01 20:29:00,
2013-02-01 12:34:00,70.5,43.0,30.15,West,270,0.0,0.0,37,0.00,,---,0.00,VWS V14.01,2013-02-01 20:34:00,
2013-02-01 12:39:00,70.3,41.4,30.15,SSE,158,1.6,4.3,35,0.00,,---,0.00,VWS V14.01,2013-02-01 20:39:00,
2013-02-01 12:44:00,71.2,42.9,30.15,WSW,248,0.0,2.5,36,0.00,,---,0.00,VWS V14.01,2013-02-01 20:44:00,
2013-02-01 12:49:00,71.4,42.4,30.15,SSE,158,0.9,2.0,35,0.00,,---,0.00,VWS V14.01,2013-02-01 20:49:00,
2013-02-01 12:54:00,71.8,41.9,30.15,WNW,292,2.5,2.5,34,0.00,,---,0.00,VWS V14.01,2013-02-01 20:54:00,
2013-02-01 12:59:00,71.4,41.6,30.12,SSW,202,1.6,2.5,34,0.00,,---,0.00,VWS V14.01,2013-02-01 20:59:00,
2013-02-01 13:04:00,72.0,41.3,30.12,ESE,112,3.8,4.3,33,0.00,,---,0.00,VWS V14.01,2013-02-01 21:04:00,
2013-02-01 13:09:00,72.9,42.9,30.12,NE,45,0.0,0.0,34,0.00,,---,0.00,VWS V14.01,2013-02-01 21:09:00,
2013-02-01 13:14:00,73.0,43.0,30.09,West,270,0.9,2.0,34,0.00,,---,0.00,VWS V14.01,2013-02-01 21:14:00,
2013-02-01 13:19:00,73.4,42.6,30.09,WSW,248,1.6,2.0,33,0.00,,---,0.00,VWS V14.01,2013-02-01 21:19:00,
2013-02-01 13:24:00,73.2,41.6,30.09,West,270,2.0,3.6,32,0.00,,---,0.00,VWS V14.01,2013-02-01 21:24:00,
2013-02-01 13:29:00,73.0,41.5,30.12,SSW,202,2.0,2.0,32,0.00,,---,0.00,VWS V14.01,2013-02-01 21:29:00,
2013-02-01 13:34:00,74.3,42.6,30.12,SW,225,2.0,2.0,32,0.00,,---,0.00,VWS V14.01,2013-02-01 21:34:00,
2013-02-01 13:39:00,73.6,41.9,30.12,WNW,292,1.6,2.0,32,0.00,,---,0.00,VWS V14.01,2013-02-01 21:39:00,
2013-02-01 13:44:00,73.6,41.1,30.09,NNW,338,2.0,2.5,31,0.00,,---,0.00,VWS V14.01,2013-02-01 21:44:00,
2013-02-01 13:49:00,73.6,41.1,30.09,ENE,68,2.0,2.5,31,0.00,,---,0.00,VWS V14.01,2013-02-01 21:49:00,
2013-02-01 13:54:00,74.5,41.9,30.09,NNE,22,2.5,2.5,31,0.00,,---,0.00,VWS V14.01,2013-02-01 21:54:00,
2013-02-01 13:59:00,74.3,41.7,30.09,South,180,0.0,1.6,31,0.00,,---,0.00,VWS V14.01,2013-02-01 21:59:00,
2013-02-01 14:04:00,73.9,41.4,30.09,WNW,292,1.6,2.9,31,0.00,,---,0.00,VWS V14.01,2013-02-01 22:04:00,
2013-02-01 14:09:00,73.6,41.1,30.09,SSE,158,1.3,1.3,31,0.00,,---,0.00,VWS V14.01,2013-02-01 22:09:00,
2013-02-01 14:14:00,75.0,43.2,30.09,NNE,22,0.0,2.5,32,0.00,,---,0.00,VWS V14.01,2013-02-01 22:14:00,
2013-02-01 14:19:00,72.9,41.3,30.09,NNE,22,1.3,2.7,32,0.00,,---,0.00,VWS V14.01,2013-02-01 22:19:00,
2013-02-01 14:24:00,74.7,42.9,30.09,SE,135,1.3,2.0,32,0.00,,---,0.00,VWS V14.01,2013-02-01 22:24:00,
2013-02-01 14:29:00,74.7,42.0,30.09,SW,225,0.0,0.0,31,0.00,,---,0.00,VWS V14.01,2013-02-01 22:29:00,
2013-02-01 14:34:00,75.4,42.7,30.09,East,90,0.0,2.5,31,0.00,,---,0.00,VWS V14.01,2013-02-01 22:34:00,
2013-02-01 14:39:00,75.6,42.8,30.09,West,270,0.0,0.0,31,0.00,,---,0.00,VWS V14.01,2013-02-01 22:39:00,
2013-02-01 14:44:00,75.2,42.5,30.09,ENE,68,1.3,2.7,31,0.00,,---,0.00,VWS V14.01,2013-02-01 22:44:00,
2013-02-01 14:49:00,74.8,42.2,30.09,ENE,68,1.1,2.9,31,0.00,,---,0.00,VWS V14.01,2013-02-01 22:49:00,
2013-02-01 14:54:00,75.0,42.4,30.09,NW,315,2.5,2.5,31,0.00,,---,0.00,VWS V14.01,2013-02-01 22:54:00,
2013-02-01 14:59:00,74.5,41.9,30.09,ENE,68,1.3,1.3,31,0.00,,---,0.00,VWS V14.01,2013-02-01 22:59:00,
2013-02-01 15:04:00,73.8,41.3,30.09,NW,315,1.6,2.7,31,0.00,,---,0.00,VWS V14.01,2013-02-01 23:04:00,
2013-02-01 15:09:00,73.8,41.3,30.09,WNW,292,0.0,2.2,31,0.00,,---,0.00,VWS V14.01,2013-02-01 23:09:00,
2013-02-01 15:14:00,72.7,41.2,30.09,WNW,292,1.1,2.5,32,0.00,,---,0.00,VWS V14.01,2013-02-01 23:14:00,
2013-02-01 15:19:00,73.4,41.0,30.09,NNE,22,0.0,1.6,31,0.00,,---,0.00,VWS V14.01,2013-02-01 23:19:00,
2013-02-01 15:24:00,73.4,41.8,30.09,WNW,292,2.0,2.2,32,0.00,,---,0.00,VWS V14.01,2013-02-01 23:24:00,
2013-02-01 15:29:00,73.0,41.5,30.09,North,0,0.9,1.3,32,0.00,,---,0.00,VWS V14.01,2013-02-01 23:29:00,
2013-02-01 15:34:00,73.0,41.5,30.09,WNW,292,2.2,2.9,32,0.00,,---,0.00,VWS V14.01,2013-02-01 23:34:00,
2013-02-01 15:39:00,72.1,40.7,30.09,NNW,338,1.6,2.7,32,0.00,,---,0.00,VWS V14.01,2013-02-01 23:39:00,
2013-02-01 15:44:00,71.8,40.4,30.06,WNW,292,2.0,2.0,32,0.00,,---,0.00,VWS V14.01,2013-02-01 23:44:00,
2013-02-01 15:49:00,71.4,40.8,30.06,WNW,292,1.1,1.1,33,0.00,,---,0.00,VWS V14.01,2013-02-01 23:49:00,
2013-02-01 15:54:00,71.6,41.0,30.06,NNE,22,0.0,0.0,33,0.00,,---,0.00,VWS V14.01,2013-02-01 23:54:00,
2013-02-01 15:59:00,71.8,41.2,30.09,NW,315,1.3,1.3,33,0.00,,---,0.00,VWS V14.01,2013-02-01 23:59:00,
2013-02-01 16:04:00,70.9,41.1,30.09,NNE,22,1.1,2.9,34,0.00,,---,0.00,VWS V14.01,2013-02-02 00:04:00,
2013-02-01 16:09:00,70.2,41.3,30.09,NNW,338,2.5,3.8,35,0.00,,---,0.00,VWS V14.01,2013-02-02 00:09:00,
2013-02-01 16:14:00,70.0,41.8,30.09,NNW,338,1.1,2.0,36,0.00,,---,0.00,VWS V14.01,2013-02-02 00:14:00,
2013-02-01 16:19:00,68.4,41.1,30.09,WNW,292,1.3,1.3,37,0.00,,---,0.00,VWS V14.01,2013-02-02 00:19:00,
2013-02-01 16:24:00,66.9,41.2,30.09,WNW,292,0.0,0.0,39,0.00,,---,0.00,VWS V14.01,2013-02-02 00:24:00,
2013-02-01 16:29:00,65.5,41.2,30.09,NNW,338,3.6,3.6,41,0.00,,---,0.00,VWS V14.01,2013-02-02 00:29:00,
2013-02-01 16:34:00,65.1,42.7,30.09,NW,315,2.5,2.7,44,0.00,,---,0.00,VWS V14.01,2013-02-02 00:34:00,
2013-02-01 16:39:00,64.4,42.6,30.09,WNW,292,1.1,2.0,45,0.00,,---,0.00,VWS V14.01,2013-02-02 00:39:00,
2013-02-01 16:44:00,63.9,42.7,30.06,North,0,2.0,2.2,46,0.00,,---,0.00,VWS V14.01,2013-02-02 00:44:00,
2013-02-01 16:49:00,63.3,42.8,30.06,WNW,292,0.0,2.2,47,0.00,,---,0.00,VWS V14.01,2013-02-02 00:49:00,
2013-02-01 16:55:00,63.0,43.0,30.06,NNW,338,2.5,2.9,48,0.00,,---,0.00,VWS V14.01,2013-02-02 00:55:00,
2013-02-01 17:00:00,62.6,44.2,30.09,NW,315,1.1,2.9,51,0.00,,---,0.00,VWS V14.01,2013-02-02 01:00:00,
2013-02-01 17:05:00,62.1,43.7,30.09,NNW,338,1.1,3.1,51,0.00,,---,0.00,VWS V14.01,2013-02-02 01:05:00,
2013-02-01 17:10:00,61.5,43.8,30.09,NNW,338,1.6,1.6,52,0.00,,---,0.00,VWS V14.01,2013-02-02 01:10:00,
2013-02-01 17:15:00,61.0,43.8,30.09,North,0,0.9,3.4,53,0.00,,---,0.00,VWS V14.01,2013-02-02 01:15:00,
2013-02-01 17:20:00,60.3,43.1,30.09,NNW,338,0.0,0.0,53,0.00,,---,0.00,VWS V14.01,2013-02-02 01:20:00,
2013-02-01 17:25:00,59.7,43.5,30.09,NNW,338,0.9,1.6,55,0.00,,---,0.00,VWS V14.01,2013-02-02 01:25:00,
2013-02-01 17:30:00,59.2,43.5,30.09,WNW,292,0.0,2.2,56,0.00,,---,0.00,VWS V14.01,2013-02-02 01:30:00,
2013-02-01 17:35:00,58.5,43.3,30.09,NW,315,0.0,0.0,57,0.00,,---,0.00,VWS V14.01,2013-02-02 01:35:00,
2013-02-01 17:40:00,58.1,43.0,30.09,NW,315,0.9,1.6,57,0.00,,---,0.00,VWS V14.01,2013-02-02 01:40:00,
2013-02-01 17:45:00,57.6,43.4,30.09,NW,315,0.0,0.0,59,0.00,,---,0.00,VWS V14.01,2013-02-02 01:45:00,
2013-02-01 17:50:00,56.8,43.1,30.09,West,270,0.0,0.0,60,0.00,,---,0.00,VWS V14.01,2013-02-02 01:50:00,
2013-02-01 17:55:00,56.5,43.2,30.09,West,270,0.0,0.0,61,0.00,,---,0.00,VWS V14.01,2013-02-02 01:55:00,
2013-02-01 18:00:00,55.9,43.1,30.12,WNW,292,0.0,0.0,62,0.00,,---,0.00,VWS V14.01,2013-02-02 02:00:00,
2013-02-01 18:05:00,55.4,43.0,30.12,WNW,292,0.0,0.0,63,0.00,,---,0.00,VWS V14.01,2013-02-02 02:05:00,
2013-02-01 18:10:00,54.7,42.3,30.12,NNW,338,0.0,0.0,63,0.00,,---,0.00,VWS V14.01,2013-02-02 02:10:00,
2013-02-01 18:15:00,54.7,42.3,30.15,NW,315,0.0,0.0,63,0.00,,---,0.00,VWS V14.01,2013-02-02 02:15:00,
2013-02-01 18:20:00,53.8,42.7,30.15,NW,315,0.0,0.0,66,0.00,,---,0.00,VWS V14.01,2013-02-02 02:20:00,
2013-02-01 18:25:00,53.4,42.8,30.15,WNW,292,0.0,0.0,67,0.00,,---,0.00,VWS V14.01,2013-02-02 02:25:00,
2013-02-01 18:31:00,53.1,42.8,30.15,WNW,292,0.0,0.0,68,0.00,,---,0.00,VWS V14.01,2013-02-02 02:31:00,
2013-02-01 18:36:00,52.7,42.8,30.15,WNW,292,0.0,0.0,69,0.00,,---,0.00,VWS V14.01,2013-02-02 02:36:00,
2013-02-01 18:41:00,52.2,42.3,30.15,WNW,292,0.0,0.0,69,0.00,,---,0.00,VWS V14.01,2013-02-02 02:41:00,
2013-02-01 18:46:00,51.6,42.5,30.15,WNW,292,0.0,0.0,71,0.00,,---,0.00,VWS V14.01,2013-02-02 02:46:00,
2013-02-01 18:51:00,51.6,42.2,30.15,WNW,292,0.0,0.0,70,0.00,,---,0.00,VWS V14.01,2013-02-02 02:51:00,
2013-02-01 18:56:00,51.4,42.7,30.12,WNW,292,0.0,0.0,72,0.00,,---,0.00,VWS V14.01,2013-02-02 02:56:00,
2013-02-01 19:01:00,50.9,42.2,30.12,WNW,292,0.0,0.0,72,0.00,,---,0.00,VWS V14.01,2013-02-02 03:01:00,
2013-02-01 19:06:00,50.7,42.4,30.12,WNW,292,0.0,0.0,73,0.00,,---,0.00,VWS V14.01,2013-02-02 03:06:00,
2013-02-01 19:11:00,50.7,42.4,30.15,WNW,292,0.0,0.0,73,0.00,,---,0.00,VWS V14.01,2013-02-02 03:11:00,
2013-02-01 19:17:00,50.4,42.4,30.15,WNW,292,0.0,0.0,74,0.00,,---,0.00,VWS V14.01,2013-02-02 03:17:00,
2013-02-01 19:22:00,50.2,42.2,30.15,WNW,292,0.0,0.0,74,0.00,,---,0.00,VWS V14.01,2013-02-02 03:22:00,
2013-02-01 19:27:00,50.2,42.6,30.15,WNW,292,0.0,0.0,75,0.00,,---,0.00,VWS V14.01,2013-02-02 03:27:00,
2013-02-01 19:32:00,49.6,42.0,30.15,WNW,292,0.0,0.0,75,0.00,,---,0.00,VWS V14.01,2013-02-02 03:32:00,
2013-02-01 19:37:00,49.5,42.2,30.15,WNW,292,0.0,0.0,76,0.00,,---,0.00,VWS V14.01,2013-02-02 03:37:00,
2013-02-01 19:42:00,49.5,42.6,30.15,WNW,292,0.0,0.0,77,0.00,,---,0.00,VWS V14.01,2013-02-02 03:42:00,
2013-02-01 19:47:00,49.1,42.2,30.15,WNW,292,0.0,0.0,77,0.00,,---,0.00,VWS V14.01,2013-02-02 03:47:00,
2013-02-01 19:52:00,48.9,42.4,30.15,WNW,292,0.0,0.0,78,0.00,,---,0.00,VWS V14.01,2013-02-02 03:52:00,
2013-02-01 19:57:00,48.9,42.0,30.15,NE,45,0.0,0.0,77,0.00,,---,0.00,VWS V14.01,2013-02-02 03:57:00,
2013-02-01 20:02:00,48.7,42.5,30.15,NE,45,0.0,0.0,79,0.00,,---,0.00,VWS V14.01,2013-02-02 04:02:00,
2013-02-01 20:07:00,48.6,42.7,30.15,NE,45,0.0,0.0,80,0.00,,---,0.00,VWS V14.01,2013-02-02 04:07:00,
2013-02-01 20:12:00,48.6,42.7,30.18,NE,45,0.0,0.0,80,0.00,,---,0.00,VWS V14.01,2013-02-02 04:12:00,
2013-02-01 20:18:00,48.7,43.2,30.18,NE,45,0.0,0.0,81,0.00,,---,0.00,VWS V14.01,2013-02-02 04:18:00,
2013-02-01 20:23:00,48.7,43.2,30.18,NE,45,0.0,0.0,81,0.00,,---,0.00,VWS V14.01,2013-02-02 04:23:00,
2013-02-01 20:28:00,48.6,43.0,30.15,NE,45,0.0,0.0,81,0.00,,---,0.00,VWS V14.01,2013-02-02 04:28:00,
2013-02-01 20:33:00,48.6,43.0,30.15,ENE,68,0.0,0.0,81,0.00,,---,0.00,VWS V14.01,2013-02-02 04:33:00,
2013-02-01 20:38:00,48.6,43.3,30.15,ENE,68,0.0,0.0,82,0.00,,---,0.00,VWS V14.01,2013-02-02 04:38:00,
2013-02-01 20:43:00,48.6,43.3,30.18,ENE,68,0.0,0.0,82,0.00,,---,0.00,VWS V14.01,2013-02-02 04:43:00,
2013-02-01 20:48:00,48.4,43.2,30.18,ENE,68,0.0,0.0,82,0.00,,---,0.00,VWS V14.01,2013-02-02 04:48:00,
2013-02-01 20:53:00,48.2,43.3,30.18,ENE,68,0.0,0.0,83,0.00,,---,0.00,VWS V14.01,2013-02-02 04:53:00,
2013-02-01 20:58:00,48.0,43.4,30.18,ENE,68,0.0,0.0,84,0.00,,---,0.00,VWS V14.01,2013-02-02 04:58:00,
2013-02-01 21:00:00,48.0,43.4,30.18,ENE,68,0.0,0.0,84,0.00,,---,0.00,VWS V14.01,2013-02-02 05:00:00,
2013-02-01 21:01:00,48.0,43.4,30.18,ENE,68,0.0,0.0,84,0.00,,---,0.00,VWS V14.01,2013-02-02 05:01:00,
2013-02-01 21:06:00,48.0,43.4,30.18,ENE,68,0.0,0.0,84,0.00,,---,0.00,VWS V14.01,2013-02-02 05:06:00,
2013-02-01 21:11:00,48.0,43.4,30.18,ENE,68,0.0,0.0,84,0.00,,---,0.00,VWS V14.01,2013-02-02 05:11:00,
2013-02-01 21:16:00,48.0,43.7,30.18,ENE,68,0.0,0.0,85,0.00,,---,0.00,VWS V14.01,2013-02-02 05:16:00,
2013-02-01 21:21:00,47.8,43.6,30.18,ENE,68,0.0,0.0,85,0.00,,---,0.00,VWS V14.01,2013-02-02 05:21:00,
2013-02-01 21:26:00,47.7,43.4,30.18,ENE,68,0.0,0.0,85,0.00,,---,0.00,VWS V14.01,2013-02-02 05:26:00,
2013-02-01 21:31:00,47.5,43.2,30.18,ENE,68,0.0,0.0,85,0.00,,---,0.00,VWS V14.01,2013-02-02 05:31:00,
2013-02-01 21:36:00,47.3,43.3,30.18,ENE,68,0.0,0.0,86,0.00,,---,0.00,VWS V14.01,2013-02-02 05:36:00,
2013-02-01 21:41:00,47.1,43.2,30.18,ENE,68,0.0,0.0,86,0.00,,---,0.00,VWS V14.01,2013-02-02 05:41:00,
2013-02-01 21:47:00,47.1,43.5,30.18,ENE,68,0.0,0.0,87,0.00,,---,0.00,VWS V14.01,2013-02-02 05:47:00,
2013-02-01 21:52:00,46.9,43.3,30.18,ENE,68,0.0,0.0,87,0.00,,---,0.00,VWS V14.01,2013-02-02 05:52:00,
2013-02-01 21:57:00,46.8,43.1,30.18,ENE,68,0.0,0.0,87,0.00,,---,0.00,VWS V14.01,2013-02-02 05:57:00,
2013-02-01 22:02:00,46.6,42.9,30.18,ENE,68,0.0,0.0,87,0.00,,---,0.00,VWS V14.01,2013-02-02 06:02:00,
2013-02-01 22:07:00,46.4,42.5,30.18,ENE,68,0.0,0.0,86,0.00,,---,0.00,VWS V14.01,2013-02-02 06:07:00,
2013-02-01 22:12:00,46.4,42.5,30.18,ENE,68,0.0,0.0,86,0.00,,---,0.00,VWS V14.01,2013-02-02 06:12:00,
2013-02-01 22:17:00,46.2,42.6,30.18,ENE,68,0.0,0.0,87,0.00,,---,0.00,VWS V14.01,2013-02-02 06:17:00,
2013-02-01 22:22:00,45.9,42.2,30.18,ENE,68,0.0,0.0,87,0.00,,---,0.00,VWS V14.01,2013-02-02 06:22:00,
2013-02-01 22:27:00,45.9,42.2,30.18,ENE,68,0.0,0.0,87,0.00,,---,0.00,VWS V14.01,2013-02-02 06:27:00,
2013-02-01 22:32:00,45.7,42.0,30.18,ENE,68,0.0,0.0,87,0.00,,---,0.00,VWS V14.01,2013-02-02 06:32:00,
2013-02-01 22:37:00,45.5,42.2,30.18,ENE,68,0.0,0.0,88,0.00,,---,0.00,VWS V14.01,2013-02-02 06:37:00,
2013-02-01 22:42:00,45.7,42.3,30.21,ENE,68,0.0,0.0,88,0.00,,---,0.00,VWS V14.01,2013-02-02 06:42:00,
2013-02-01 22:47:00,45.5,42.5,30.21,ENE,68,0.0,0.0,89,0.00,,---,0.00,VWS V14.01,2013-02-02 06:47:00,
2013-02-01 22:52:00,45.5,42.2,30.21,ENE,68,0.0,0.0,88,0.00,,---,0.00,VWS V14.01,2013-02-02 06:52:00,
2013-02-01 22:57:00,45.5,42.5,30.18,ENE,68,0.0,0.0,89,0.00,,---,0.00,VWS V14.01,2013-02-02 06:57:00,
2013-02-01 23:02:00,45.7,42.3,30.18,ENE,68,0.0,0.0,88,0.00,,---,0.00,VWS V14.01,2013-02-02 07:02:00,
2013-02-01 23:07:00,45.7,42.6,30.18,ENE,68,0.0,0.0,89,0.00,,---,0.00,VWS V14.01,2013-02-02 07:07:00,
2013-02-01 23:12:00,45.5,42.5,30.18,ENE,68,0.0,0.0,89,0.00,,---,0.00,VWS V14.01,2013-02-02 07:12:00,
2013-02-01 23:17:00,45.3,42.3,30.18,ENE,68,0.0,0.0,89,0.00,,---,0.00,VWS V14.01,2013-02-02 07:17:00,
2013-02-01 23:22:00,45.3,42.3,30.18,ENE,68,0.0,0.0,89,0.00,,---,0.00,VWS V14.01,2013-02-02 07:22:00,
2013-02-01 23:28:00,45.3,42.3,30.18,ENE,68,0.0,0.0,89,0.00,,---,0.00,VWS V14.01,2013-02-02 07:28:00,
2013-02-01 23:33:00,45.1,42.1,30.18,ENE,68,0.0,0.0,89,0.00,,---,0.00,VWS V14.01,2013-02-02 07:33:00,
2013-02-01 23:38:00,45.1,42.4,30.18,ENE,68,0.0,0.0,90,0.00,,---,0.00,VWS V14.01,2013-02-02 07:38:00,
2013-02-01 23:43:00,44.8,42.0,30.21,ENE,68,0.0,0.0,90,0.00,,---,0.00,VWS V14.01,2013-02-02 07:43:00,
2013-02-01 23:48:00,44.8,42.0,30.21,ENE,68,0.0,0.0,90,0.00,,---,0.00,VWS V14.01,2013-02-02 07:48:00,
2013-02-01 23:53:00,44.6,41.8,30.21,ENE,68,0.0,0.0,90,0.00,,---,0.00,VWS V14.01,2013-02-02 07:53:00,
2013-02-01 23:58:00,44.6,42.1,30.21,ENE,68,0.0,0.0,91,0.00,,---,0.00,VWS V14.01,2013-02-02 07:58:00,